sensor_id;sensor_type;location;lat;lon;timestamp;temperature;humidity
58517;DHT22;44308;50.810;0.284;2022-07-24T00:00:40;18.30;99.90
58517;DHT22;44308;50.810;0.284;2022-07-24T00:03:07;18.30;99.90
58517;DHT22;44308;50.810;0.284;2022-07-24T00:05:33;18.30;99.90
58517;DHT22;44308;50.810;0.284;2022-07-24T00:07:59;18.30;99.90
58517;DHT22;44308;50.810;0.284;2022-07-24T00:10:25;18.30;99.90
58517;DHT22;44308;50.810;0.284;2022-07-24T00:12:51;18.20;99.90
58517;DHT22;44308;50.810;0.284;2022-07-24T00:15:17;18.20;99.90
58517;DHT22;44308;50.810;0.284;2022-07-24T00:17:43;18.20;99.90
58517;DHT22;44308;50.810;0.284;2022-07-24T00:20:09;18.20;99.90
58517;DHT22;44308;50.810;0.284;2022-07-24T00:22:36;18.20;99.90
58517;DHT22;44308;50.810;0.284;2022-07-24T00:25:04;18.20;99.90
58517;DHT22;44308;50.810;0.284;2022-07-24T00:27:32;18.20;99.90
58517;DHT22;44308;50.810;0.284;2022-07-24T00:29:58;18.20;99.90
58517;DHT22;44308;50.810;0.284;2022-07-24T00:32:24;18.20;99.90
58517;DHT22;44308;50.810;0.284;2022-07-24T00:34:50;18.20;99.90
58517;DHT22;44308;50.810;0.284;2022-07-24T00:37:15;18.20;99.90
58517;DHT22;44308;50.810;0.284;2022-07-24T00:39:41;18.20;99.90
58517;DHT22;44308;50.810;0.284;2022-07-24T00:42:07;18.20;99.90
58517;DHT22;44308;50.810;0.284;2022-07-24T00:44:33;18.20;99.90
58517;DHT22;44308;50.810;0.284;2022-07-24T00:46:59;18.10;99.90
58517;DHT22;44308;50.810;0.284;2022-07-24T00:49:25;18.20;99.90
58517;DHT22;44308;50.810;0.284;2022-07-24T00:51:52;18.10;99.90
58517;DHT22;44308;50.810;0.284;2022-07-24T00:54:20;18.10;99.90
58517;DHT22;44308;50.810;0.284;2022-07-24T00:56:50;18.20;99.90
58517;DHT22;44308;50.810;0.284;2022-07-24T00:59:17;18.20;99.90
58517;DHT22;44308;50.810;0.284;2022-07-24T01:01:44;18.10;99.90
58517;DHT22;44308;50.810;0.284;2022-07-24T01:04:11;18.10;99.90
58517;DHT22;44308;50.810;0.284;2022-07-24T01:06:37;18.10;99.90
58517;DHT22;44308;50.810;0.284;2022-07-24T01:09:05;18.10;99.90
58517;DHT22;44308;50.810;0.284;2022-07-24T01:11:31;18.10;99.90
58517;DHT22;44308;50.810;0.284;2022-07-24T01:13:57;18.10;99.90
58517;DHT22;44308;50.810;0.284;2022-07-24T01:16:23;18.10;99.90
58517;DHT22;44308;50.810;0.284;2022-07-24T01:18:50;18.10;99.90
58517;DHT22;44308;50.810;0.284;2022-07-24T01:21:15;18.10;99.90
58517;DHT22;44308;50.810;0.284;2022-07-24T01:23:41;18.10;99.90
58517;DHT22;44308;50.810;0.284;2022-07-24T01:26:08;18.10;99.90
58517;DHT22;44308;50.810;0.284;2022-07-24T01:28:37;18.00;99.90
58517;DHT22;44308;50.810;0.284;2022-07-24T01:31:03;18.00;99.90
58517;DHT22;44308;50.810;0.284;2022-07-24T01:33:28;18.00;99.90
58517;DHT22;44308;50.810;0.284;2022-07-24T01:35:54;18.00;99.90
58517;DHT22;44308;50.810;0.284;2022-07-24T01:38:20;18.00;99.90
58517;DHT22;44308;50.810;0.284;2022-07-24T01:40:46;18.00;99.90
58517;DHT22;44308;50.810;0.284;2022-07-24T01:43:12;18.00;99.90
58517;DHT22;44308;50.810;0.284;2022-07-24T01:45:41;17.90;99.90
58517;DHT22;44308;50.810;0.284;2022-07-24T01:48:07;17.90;99.90
58517;DHT22;44308;50.810;0.284;2022-07-24T01:50:33;17.90;99.90
58517;DHT22;44308;50.810;0.284;2022-07-24T01:52:59;17.90;99.90
58517;DHT22;44308;50.810;0.284;2022-07-24T01:55:27;17.90;99.90
58517;DHT22;44308;50.810;0.284;2022-07-24T01:57:53;17.80;99.90
58517;DHT22;44308;50.810;0.284;2022-07-24T02:00:19;17.80;99.90
58517;DHT22;44308;50.810;0.284;2022-07-24T02:02:45;17.80;99.90
58517;DHT22;44308;50.810;0.284;2022-07-24T02:05:13;17.80;99.90
58517;DHT22;44308;50.810;0.284;2022-07-24T02:07:42;17.70;99.90
58517;DHT22;44308;50.810;0.284;2022-07-24T02:10:10;17.70;99.90
58517;DHT22;44308;50.810;0.284;2022-07-24T02:12:35;17.70;99.90
58517;DHT22;44308;50.810;0.284;2022-07-24T02:15:03;17.70;99.90
58517;DHT22;44308;50.810;0.284;2022-07-24T02:17:29;17.70;99.90
58517;DHT22;44308;50.810;0.284;2022-07-24T02:19:55;17.70;99.90
58517;DHT22;44308;50.810;0.284;2022-07-24T02:22:21;17.70;99.90
58517;DHT22;44308;50.810;0.284;2022-07-24T02:24:48;17.60;99.90
58517;DHT22;44308;50.810;0.284;2022-07-24T02:27:14;17.60;99.90
58517;DHT22;44308;50.810;0.284;2022-07-24T02:29:39;17.60;99.90
58517;DHT22;44308;50.810;0.284;2022-07-24T02:32:06;17.60;99.90
58517;DHT22;44308;50.810;0.284;2022-07-24T02:34:32;17.60;99.90
58517;DHT22;44308;50.810;0.284;2022-07-24T02:36:58;17.50;99.90
58517;DHT22;44308;50.810;0.284;2022-07-24T02:39:24;17.50;99.90
58517;DHT22;44308;50.810;0.284;2022-07-24T02:41:49;17.50;99.90
58517;DHT22;44308;50.810;0.284;2022-07-24T02:44:34;17.50;99.90
58517;DHT22;44308;50.810;0.284;2022-07-24T02:46:59;17.50;99.90
58517;DHT22;44308;50.810;0.284;2022-07-24T02:49:26;17.50;99.90
58517;DHT22;44308;50.810;0.284;2022-07-24T02:51:51;17.40;99.90
58517;DHT22;44308;50.810;0.284;2022-07-24T02:54:17;17.40;99.90
58517;DHT22;44308;50.810;0.284;2022-07-24T02:56:43;17.40;99.90
58517;DHT22;44308;50.810;0.284;2022-07-24T02:59:09;17.40;99.90
58517;DHT22;44308;50.810;0.284;2022-07-24T03:01:34;17.40;99.90
58517;DHT22;44308;50.810;0.284;2022-07-24T03:04:00;17.40;99.90
58517;DHT22;44308;50.810;0.284;2022-07-24T03:06:26;17.30;99.90
58517;DHT22;44308;50.810;0.284;2022-07-24T03:08:52;17.30;99.90
58517;DHT22;44308;50.810;0.284;2022-07-24T03:11:18;17.40;99.90
58517;DHT22;44308;50.810;0.284;2022-07-24T03:13:43;17.30;99.90
58517;DHT22;44308;50.810;0.284;2022-07-24T03:16:09;17.30;99.90
58517;DHT22;44308;50.810;0.284;2022-07-24T03:18:35;17.30;99.90
58517;DHT22;44308;50.810;0.284;2022-07-24T03:21:01;17.30;99.90
58517;DHT22;44308;50.810;0.284;2022-07-24T03:23:27;17.30;99.90
58517;DHT22;44308;50.810;0.284;2022-07-24T03:25:52;17.30;99.90
58517;DHT22;44308;50.810;0.284;2022-07-24T03:28:20;17.30;99.90
58517;DHT22;44308;50.810;0.284;2022-07-24T03:30:46;17.30;99.90
58517;DHT22;44308;50.810;0.284;2022-07-24T03:33:12;17.40;99.90
58517;DHT22;44308;50.810;0.284;2022-07-24T03:35:38;17.40;99.90
58517;DHT22;44308;50.810;0.284;2022-07-24T03:38:03;17.50;99.90
58517;DHT22;44308;50.810;0.284;2022-07-24T03:40:29;17.50;99.90
58517;DHT22;44308;50.810;0.284;2022-07-24T03:42:55;17.40;99.90
58517;DHT22;44308;50.810;0.284;2022-07-24T03:45:21;17.40;99.90
58517;DHT22;44308;50.810;0.284;2022-07-24T03:47:47;17.40;99.90
58517;DHT22;44308;50.810;0.284;2022-07-24T03:50:12;17.40;99.90
58517;DHT22;44308;50.810;0.284;2022-07-24T03:52:38;17.40;99.90
58517;DHT22;44308;50.810;0.284;2022-07-24T03:55:04;17.40;99.90
58517;DHT22;44308;50.810;0.284;2022-07-24T03:57:30;17.40;99.90
58517;DHT22;44308;50.810;0.284;2022-07-24T03:59:56;17.40;99.90
58517;DHT22;44308;50.810;0.284;2022-07-24T04:02:21;17.40;99.90
58517;DHT22;44308;50.810;0.284;2022-07-24T04:04:48;17.40;99.90
58517;DHT22;44308;50.810;0.284;2022-07-24T04:07:14;17.40;99.90
58517;DHT22;44308;50.810;0.284;2022-07-24T04:09:40;17.40;99.90
58517;DHT22;44308;50.810;0.284;2022-07-24T04:12:06;17.30;99.90
58517;DHT22;44308;50.810;0.284;2022-07-24T04:14:31;17.40;99.90
58517;DHT22;44308;50.810;0.284;2022-07-24T04:16:58;17.40;99.90
58517;DHT22;44308;50.810;0.284;2022-07-24T04:19:23;17.40;99.90
58517;DHT22;44308;50.810;0.284;2022-07-24T04:21:52;17.40;99.90
58517;DHT22;44308;50.810;0.284;2022-07-24T04:24:18;17.30;99.90
58517;DHT22;44308;50.810;0.284;2022-07-24T04:26:44;17.30;99.90
58517;DHT22;44308;50.810;0.284;2022-07-24T04:29:10;17.30;99.90
58517;DHT22;44308;50.810;0.284;2022-07-24T04:31:35;17.30;99.90
58517;DHT22;44308;50.810;0.284;2022-07-24T04:34:01;17.30;99.90
58517;DHT22;44308;50.810;0.284;2022-07-24T04:36:27;17.30;99.90
58517;DHT22;44308;50.810;0.284;2022-07-24T04:38:53;17.30;99.90
58517;DHT22;44308;50.810;0.284;2022-07-24T04:41:19;17.30;99.90
58517;DHT22;44308;50.810;0.284;2022-07-24T04:43:44;17.30;99.90
58517;DHT22;44308;50.810;0.284;2022-07-24T04:46:10;17.30;99.90
58517;DHT22;44308;50.810;0.284;2022-07-24T04:48:36;17.40;99.90
58517;DHT22;44308;50.810;0.284;2022-07-24T04:51:02;17.40;99.90
58517;DHT22;44308;50.810;0.284;2022-07-24T04:53:28;17.40;99.90
58517;DHT22;44308;50.810;0.284;2022-07-24T04:55:56;17.40;99.90
58517;DHT22;44308;50.810;0.284;2022-07-24T04:58:22;17.40;99.90
58517;DHT22;44308;50.810;0.284;2022-07-24T05:00:48;17.50;99.90
58517;DHT22;44308;50.810;0.284;2022-07-24T05:03:14;17.50;99.90
58517;DHT22;44308;50.810;0.284;2022-07-24T05:05:39;17.50;99.90
58517;DHT22;44308;50.810;0.284;2022-07-24T05:08:05;17.50;99.90
58517;DHT22;44308;50.810;0.284;2022-07-24T05:10:31;17.60;99.90
58517;DHT22;44308;50.810;0.284;2022-07-24T05:12:57;17.60;99.90
58517;DHT22;44308;50.810;0.284;2022-07-24T05:15:22;17.70;99.90
58517;DHT22;44308;50.810;0.284;2022-07-24T05:17:48;17.70;99.90
58517;DHT22;44308;50.810;0.284;2022-07-24T05:20:14;17.80;99.90
58517;DHT22;44308;50.810;0.284;2022-07-24T05:22:40;17.80;99.90
58517;DHT22;44308;50.810;0.284;2022-07-24T05:25:06;17.80;99.90
58517;DHT22;44308;50.810;0.284;2022-07-24T05:27:32;17.90;99.90
58517;DHT22;44308;50.810;0.284;2022-07-24T05:29:58;17.90;99.90
58517;DHT22;44308;50.810;0.284;2022-07-24T05:32:23;18.00;99.90
58517;DHT22;44308;50.810;0.284;2022-07-24T05:34:49;18.00;99.90
58517;DHT22;44308;50.810;0.284;2022-07-24T05:37:15;18.10;99.90
58517;DHT22;44308;50.810;0.284;2022-07-24T05:39:41;18.20;99.90
58517;DHT22;44308;50.810;0.284;2022-07-24T05:42:07;18.30;99.90
58517;DHT22;44308;50.810;0.284;2022-07-24T05:44:32;18.40;99.90
58517;DHT22;44308;50.810;0.284;2022-07-24T05:46:58;18.60;99.90
58517;DHT22;44308;50.810;0.284;2022-07-24T05:49:24;18.70;99.90
58517;DHT22;44308;50.810;0.284;2022-07-24T05:51:52;18.80;99.90
58517;DHT22;44308;50.810;0.284;2022-07-24T05:54:19;18.80;99.90
58517;DHT22;44308;50.810;0.284;2022-07-24T05:56:45;18.80;99.90
58517;DHT22;44308;50.810;0.284;2022-07-24T05:59:11;18.80;99.90
58517;DHT22;44308;50.810;0.284;2022-07-24T06:01:37;18.90;99.90
58517;DHT22;44308;50.810;0.284;2022-07-24T06:04:05;19.00;99.90
58517;DHT22;44308;50.810;0.284;2022-07-24T06:06:31;19.10;99.90
58517;DHT22;44308;50.810;0.284;2022-07-24T06:09:06;19.10;99.90
58517;DHT22;44308;50.810;0.284;2022-07-24T06:11:33;19.30;99.90
58517;DHT22;44308;50.810;0.284;2022-07-24T06:13:59;19.40;99.90
58517;DHT22;44308;50.810;0.284;2022-07-24T06:16:24;19.50;99.90
58517;DHT22;44308;50.810;0.284;2022-07-24T06:18:50;19.60;99.90
58517;DHT22;44308;50.810;0.284;2022-07-24T06:21:16;19.90;99.90
58517;DHT22;44308;50.810;0.284;2022-07-24T06:23:42;20.00;99.90
58517;DHT22;44308;50.810;0.284;2022-07-24T06:26:07;20.20;99.90
58517;DHT22;44308;50.810;0.284;2022-07-24T06:28:33;20.50;99.90
58517;DHT22;44308;50.810;0.284;2022-07-24T06:30:59;20.80;99.90
58517;DHT22;44308;50.810;0.284;2022-07-24T06:33:25;21.10;99.90
58517;DHT22;44308;50.810;0.284;2022-07-24T06:35:51;21.10;99.90
58517;DHT22;44308;50.810;0.284;2022-07-24T06:38:16;21.10;99.90
58517;DHT22;44308;50.810;0.284;2022-07-24T06:40:43;20.90;99.90
58517;DHT22;44308;50.810;0.284;2022-07-24T06:43:08;20.90;99.90
58517;DHT22;44308;50.810;0.284;2022-07-24T06:45:34;21.00;99.90
58517;DHT22;44308;50.810;0.284;2022-07-24T06:48:02;21.30;99.90
58517;DHT22;44308;50.810;0.284;2022-07-24T06:50:28;21.50;99.90
58517;DHT22;44308;50.810;0.284;2022-07-24T06:52:55;21.50;99.90
58517;DHT22;44308;50.810;0.284;2022-07-24T06:55:21;21.40;99.90
58517;DHT22;44308;50.810;0.284;2022-07-24T06:57:47;21.40;99.90
58517;DHT22;44308;50.810;0.284;2022-07-24T07:00:13;21.60;99.90
58517;DHT22;44308;50.810;0.284;2022-07-24T07:02:39;22.10;99.90
58517;DHT22;44308;50.810;0.284;2022-07-24T07:05:08;22.60;99.90
58517;DHT22;44308;50.810;0.284;2022-07-24T07:07:35;23.60;99.90
58517;DHT22;44308;50.810;0.284;2022-07-24T07:10:01;24.50;99.90
58517;DHT22;44308;50.810;0.284;2022-07-24T07:12:27;25.20;99.90
58517;DHT22;44308;50.810;0.284;2022-07-24T07:14:53;25.30;99.90
58517;DHT22;44308;50.810;0.284;2022-07-24T07:17:19;25.30;99.90
58517;DHT22;44308;50.810;0.284;2022-07-24T07:19:44;25.80;99.90
58517;DHT22;44308;50.810;0.284;2022-07-24T07:22:10;25.90;99.90
58517;DHT22;44308;50.810;0.284;2022-07-24T07:24:37;26.10;99.90
58517;DHT22;44308;50.810;0.284;2022-07-24T07:27:03;26.10;99.90
58517;DHT22;44308;50.810;0.284;2022-07-24T07:29:29;25.90;99.90
58517;DHT22;44308;50.810;0.284;2022-07-24T07:31:54;26.10;99.90
58517;DHT22;44308;50.810;0.284;2022-07-24T07:34:20;26.60;99.90
58517;DHT22;44308;50.810;0.284;2022-07-24T07:36:46;26.20;99.90
58517;DHT22;44308;50.810;0.284;2022-07-24T07:39:12;27.00;99.90
58517;DHT22;44308;50.810;0.284;2022-07-24T07:41:38;27.90;99.90
58517;DHT22;44308;50.810;0.284;2022-07-24T07:44:04;28.20;99.90
58517;DHT22;44308;50.810;0.284;2022-07-24T07:46:30;28.60;99.90
58517;DHT22;44308;50.810;0.284;2022-07-24T07:48:55;28.70;99.90
58517;DHT22;44308;50.810;0.284;2022-07-24T07:51:21;29.20;99.90
58517;DHT22;44308;50.810;0.284;2022-07-24T07:53:47;29.20;99.90
58517;DHT22;44308;50.810;0.284;2022-07-24T07:56:14;29.70;99.90
58517;DHT22;44308;50.810;0.284;2022-07-24T07:58:39;29.70;99.90
58517;DHT22;44308;50.810;0.284;2022-07-24T08:01:05;29.50;99.90
58517;DHT22;44308;50.810;0.284;2022-07-24T08:03:31;30.10;99.90
58517;DHT22;44308;50.810;0.284;2022-07-24T08:05:57;29.70;99.90
58517;DHT22;44308;50.810;0.284;2022-07-24T08:08:22;28.90;99.90
58517;DHT22;44308;50.810;0.284;2022-07-24T08:10:48;29.50;99.90
58517;DHT22;44308;50.810;0.284;2022-07-24T08:13:14;30.10;99.90
58517;DHT22;44308;50.810;0.284;2022-07-24T08:15:41;29.80;99.90
58517;DHT22;44308;50.810;0.284;2022-07-24T08:18:07;28.30;99.90
58517;DHT22;44308;50.810;0.284;2022-07-24T08:20:32;28.20;99.90
58517;DHT22;44308;50.810;0.284;2022-07-24T08:22:58;28.40;99.90
58517;DHT22;44308;50.810;0.284;2022-07-24T08:25:26;27.60;99.90
58517;DHT22;44308;50.810;0.284;2022-07-24T08:27:52;28.20;99.90
58517;DHT22;44308;50.810;0.284;2022-07-24T08:30:18;28.30;99.90
58517;DHT22;44308;50.810;0.284;2022-07-24T08:32:44;29.30;99.90
58517;DHT22;44308;50.810;0.284;2022-07-24T08:35:11;29.10;99.90
58517;DHT22;44308;50.810;0.284;2022-07-24T08:37:38;29.30;99.90
58517;DHT22;44308;50.810;0.284;2022-07-24T08:40:06;29.00;99.90
58517;DHT22;44308;50.810;0.284;2022-07-24T08:42:32;28.70;99.90
58517;DHT22;44308;50.810;0.284;2022-07-24T08:44:58;28.40;99.90
58517;DHT22;44308;50.810;0.284;2022-07-24T08:47:28;28.60;99.90
58517;DHT22;44308;50.810;0.284;2022-07-24T08:49:55;28.60;99.90
58517;DHT22;44308;50.810;0.284;2022-07-24T08:52:23;28.90;99.90
58517;DHT22;44308;50.810;0.284;2022-07-24T08:54:49;28.80;99.90
58517;DHT22;44308;50.810;0.284;2022-07-24T08:57:15;28.30;99.90
58517;DHT22;44308;50.810;0.284;2022-07-24T08:59:41;28.70;99.90
58517;DHT22;44308;50.810;0.284;2022-07-24T09:02:06;28.80;99.90
58517;DHT22;44308;50.810;0.284;2022-07-24T09:04:34;28.80;99.90
58517;DHT22;44308;50.810;0.284;2022-07-24T09:07:04;28.20;99.90
58517;DHT22;44308;50.810;0.284;2022-07-24T09:09:31;28.40;99.90
58517;DHT22;44308;50.810;0.284;2022-07-24T09:14:37;29.20;99.90
58517;DHT22;44308;50.810;0.284;2022-07-24T09:17:10;29.50;99.90
58517;DHT22;44308;50.810;0.284;2022-07-24T09:19:57;29.40;99.90
58517;DHT22;44308;50.810;0.284;2022-07-24T09:25:17;29.50;99.90
58517;DHT22;44308;50.810;0.284;2022-07-24T09:28:01;29.00;99.90
58517;DHT22;44308;50.810;0.284;2022-07-24T09:30:36;28.00;99.90
58517;DHT22;44308;50.810;0.284;2022-07-24T09:33:21;28.00;99.90
58517;DHT22;44308;50.810;0.284;2022-07-24T09:35:52;27.90;99.90
58517;DHT22;44308;50.810;0.284;2022-07-24T09:38:22;28.10;99.90
58517;DHT22;44308;50.810;0.284;2022-07-24T09:40:57;28.50;99.90
58517;DHT22;44308;50.810;0.284;2022-07-24T09:43:32;28.80;99.90
58517;DHT22;44308;50.810;0.284;2022-07-24T09:46:09;28.40;99.90
58517;DHT22;44308;50.810;0.284;2022-07-24T09:48:38;28.70;99.90
58517;DHT22;44308;50.810;0.284;2022-07-24T09:51:14;28.60;99.90
58517;DHT22;44308;50.810;0.284;2022-07-24T09:53:41;28.60;99.90
58517;DHT22;44308;50.810;0.284;2022-07-24T09:56:11;28.60;99.90
58517;DHT22;44308;50.810;0.284;2022-07-24T09:58:39;28.80;99.90
58517;DHT22;44308;50.810;0.284;2022-07-24T10:01:07;28.70;99.90
58517;DHT22;44308;50.810;0.284;2022-07-24T10:03:36;28.30;99.90
58517;DHT22;44308;50.810;0.284;2022-07-24T10:06:05;28.90;99.90
58517;DHT22;44308;50.810;0.284;2022-07-24T10:08:33;29.30;99.90
58517;DHT22;44308;50.810;0.284;2022-07-24T10:10:59;28.60;99.90
58517;DHT22;44308;50.810;0.284;2022-07-24T10:13:26;29.00;99.90
58517;DHT22;44308;50.810;0.284;2022-07-24T10:18:49;29.30;99.90
58517;DHT22;44308;50.810;0.284;2022-07-24T10:21:20;29.00;99.90
58517;DHT22;44308;50.810;0.284;2022-07-24T10:29:23;29.00;99.90
58517;DHT22;44308;50.810;0.284;2022-07-24T10:31:56;29.00;99.90
58517;DHT22;44308;50.810;0.284;2022-07-24T10:40:17;28.50;99.90
58517;DHT22;44308;50.810;0.284;2022-07-24T10:45:42;28.70;99.90
58517;DHT22;44308;50.810;0.284;2022-07-24T10:51:12;29.00;99.90
58517;DHT22;44308;50.810;0.284;2022-07-24T10:53:53;28.40;99.90
58517;DHT22;44308;50.810;0.284;2022-07-24T10:56:25;28.00;99.90
58517;DHT22;44308;50.810;0.284;2022-07-24T11:01:36;27.80;99.90
58517;DHT22;44308;50.810;0.284;2022-07-24T11:09:17;27.70;99.90
58517;DHT22;44308;50.810;0.284;2022-07-24T11:14:46;28.10;99.90
58517;DHT22;44308;50.810;0.284;2022-07-24T11:17:37;28.20;99.90
58517;DHT22;44308;50.810;0.284;2022-07-24T11:20:12;28.30;99.90
58517;DHT22;44308;50.810;0.284;2022-07-24T11:28:30;28.40;99.90
58517;DHT22;44308;50.810;0.284;2022-07-24T11:30:49;27.60;99.90
58517;DHT22;44308;50.810;0.284;2022-07-24T11:33:21;27.90;99.90
58517;DHT22;44308;50.810;0.284;2022-07-24T11:35:47;27.60;99.90
58517;DHT22;44308;50.810;0.284;2022-07-24T11:38:14;27.60;99.90
58517;DHT22;44308;50.810;0.284;2022-07-24T11:40:40;27.60;99.90
58517;DHT22;44308;50.810;0.284;2022-07-24T11:43:07;27.60;99.90
58517;DHT22;44308;50.810;0.284;2022-07-24T11:45:34;27.50;99.90
58517;DHT22;44308;50.810;0.284;2022-07-24T11:48:00;27.60;99.90
58517;DHT22;44308;50.810;0.284;2022-07-24T11:50:27;27.90;99.90
58517;DHT22;44308;50.810;0.284;2022-07-24T11:52:54;28.20;99.90
58517;DHT22;44308;50.810;0.284;2022-07-24T11:55:22;28.30;99.90
58517;DHT22;44308;50.810;0.284;2022-07-24T11:57:53;28.30;99.90
58517;DHT22;44308;50.810;0.284;2022-07-24T12:00:27;28.70;99.90
58517;DHT22;44308;50.810;0.284;2022-07-24T12:02:55;28.70;99.90
58517;DHT22;44308;50.810;0.284;2022-07-24T12:07:50;27.80;99.90
58517;DHT22;44308;50.810;0.284;2022-07-24T12:10:19;27.10;99.90
58517;DHT22;44308;50.810;0.284;2022-07-24T12:12:48;27.10;99.90
58517;DHT22;44308;50.810;0.284;2022-07-24T12:15:14;27.10;99.90
58517;DHT22;44308;50.810;0.284;2022-07-24T12:18:13;27.20;99.90
58517;DHT22;44308;50.810;0.284;2022-07-24T12:20:43;27.20;99.90
58517;DHT22;44308;50.810;0.284;2022-07-24T12:23:14;27.50;99.90
58517;DHT22;44308;50.810;0.284;2022-07-24T12:25:41;27.90;99.90
58517;DHT22;44308;50.810;0.284;2022-07-24T12:28:09;28.00;99.90
58517;DHT22;44308;50.810;0.284;2022-07-24T12:30:39;27.30;99.90
58517;DHT22;44308;50.810;0.284;2022-07-24T12:33:20;27.40;99.90
58517;DHT22;44308;50.810;0.284;2022-07-24T12:36:03;27.40;99.90
58517;DHT22;44308;50.810;0.284;2022-07-24T12:38:52;27.70;99.90
58517;DHT22;44308;50.810;0.284;2022-07-24T12:41:20;27.70;99.90
58517;DHT22;44308;50.810;0.284;2022-07-24T12:46:15;27.80;99.90
58517;DHT22;44308;50.810;0.284;2022-07-24T12:51:24;27.30;99.90
58517;DHT22;44308;50.810;0.284;2022-07-24T12:53:53;27.70;99.90
58517;DHT22;44308;50.810;0.284;2022-07-24T12:56:19;27.90;99.90
58517;DHT22;44308;50.810;0.284;2022-07-24T12:58:57;27.80;99.90
58517;DHT22;44308;50.810;0.284;2022-07-24T13:01:25;27.90;99.90
58517;DHT22;44308;50.810;0.284;2022-07-24T13:04:00;27.80;99.90
58517;DHT22;44308;50.810;0.284;2022-07-24T13:06:40;27.40;99.90
58517;DHT22;44308;50.810;0.284;2022-07-24T13:09:08;27.80;99.90
58517;DHT22;44308;50.810;0.284;2022-07-24T13:11:36;27.70;99.90
58517;DHT22;44308;50.810;0.284;2022-07-24T13:14:03;27.30;99.90
58517;DHT22;44308;50.810;0.284;2022-07-24T13:16:30;27.40;99.90
58517;DHT22;44308;50.810;0.284;2022-07-24T13:18:57;27.60;99.90
58517;DHT22;44308;50.810;0.284;2022-07-24T13:21:23;27.90;99.90
58517;DHT22;44308;50.810;0.284;2022-07-24T13:23:51;28.20;99.90
58517;DHT22;44308;50.810;0.284;2022-07-24T13:26:17;28.50;99.90
58517;DHT22;44308;50.810;0.284;2022-07-24T13:28:43;28.40;99.90
58517;DHT22;44308;50.810;0.284;2022-07-24T13:31:08;28.40;99.90
58517;DHT22;44308;50.810;0.284;2022-07-24T13:33:34;28.70;99.90
58517;DHT22;44308;50.810;0.284;2022-07-24T13:36:00;28.50;99.90
58517;DHT22;44308;50.810;0.284;2022-07-24T13:38:26;28.30;99.90
58517;DHT22;44308;50.810;0.284;2022-07-24T13:40:52;28.50;99.90
58517;DHT22;44308;50.810;0.284;2022-07-24T13:43:18;27.70;99.90
58517;DHT22;44308;50.810;0.284;2022-07-24T13:45:43;27.40;99.90
58517;DHT22;44308;50.810;0.284;2022-07-24T13:48:09;26.50;99.90
58517;DHT22;44308;50.810;0.284;2022-07-24T13:50:35;25.80;99.90
58517;DHT22;44308;50.810;0.284;2022-07-24T13:53:01;25.70;99.90
58517;DHT22;44308;50.810;0.284;2022-07-24T13:55:27;25.90;99.90
58517;DHT22;44308;50.810;0.284;2022-07-24T13:57:53;26.20;99.90
58517;DHT22;44308;50.810;0.284;2022-07-24T14:00:18;26.20;99.90
58517;DHT22;44308;50.810;0.284;2022-07-24T14:02:44;26.30;99.90
58517;DHT22;44308;50.810;0.284;2022-07-24T14:05:10;26.60;99.90
58517;DHT22;44308;50.810;0.284;2022-07-24T14:07:36;27.20;99.90
58517;DHT22;44308;50.810;0.284;2022-07-24T14:10:02;27.60;99.90
58517;DHT22;44308;50.810;0.284;2022-07-24T14:12:27;27.90;99.90
58517;DHT22;44308;50.810;0.284;2022-07-24T14:14:55;27.70;99.90
58517;DHT22;44308;50.810;0.284;2022-07-24T14:17:21;28.20;99.90
58517;DHT22;44308;50.810;0.284;2022-07-24T14:19:46;28.50;99.90
58517;DHT22;44308;50.810;0.284;2022-07-24T14:22:12;28.70;99.90
58517;DHT22;44308;50.810;0.284;2022-07-24T14:24:38;28.70;99.90
58517;DHT22;44308;50.810;0.284;2022-07-24T14:27:04;28.80;99.90
58517;DHT22;44308;50.810;0.284;2022-07-24T14:29:29;29.00;99.90
58517;DHT22;44308;50.810;0.284;2022-07-24T14:31:55;28.60;99.90
58517;DHT22;44308;50.810;0.284;2022-07-24T14:34:21;28.30;99.90
58517;DHT22;44308;50.810;0.284;2022-07-24T14:36:47;28.40;99.90
58517;DHT22;44308;50.810;0.284;2022-07-24T14:39:13;28.30;99.90
58517;DHT22;44308;50.810;0.284;2022-07-24T14:41:39;28.30;99.90
58517;DHT22;44308;50.810;0.284;2022-07-24T14:44:05;28.80;99.90
58517;DHT22;44308;50.810;0.284;2022-07-24T14:46:32;29.20;99.90
58517;DHT22;44308;50.810;0.284;2022-07-24T14:48:57;28.80;99.90
58517;DHT22;44308;50.810;0.284;2022-07-24T14:51:23;28.70;99.90
58517;DHT22;44308;50.810;0.284;2022-07-24T14:53:49;28.80;99.90
58517;DHT22;44308;50.810;0.284;2022-07-24T14:56:15;28.40;99.90
58517;DHT22;44308;50.810;0.284;2022-07-24T14:58:41;28.60;99.90
58517;DHT22;44308;50.810;0.284;2022-07-24T15:01:06;28.40;99.90
58517;DHT22;44308;50.810;0.284;2022-07-24T15:03:34;28.50;99.90
58517;DHT22;44308;50.810;0.284;2022-07-24T15:06:00;28.10;99.90
58517;DHT22;44308;50.810;0.284;2022-07-24T15:08:26;28.30;99.90
58517;DHT22;44308;50.810;0.284;2022-07-24T15:10:51;28.10;99.90
58517;DHT22;44308;50.810;0.284;2022-07-24T15:13:17;28.50;99.90
58517;DHT22;44308;50.810;0.284;2022-07-24T15:15:43;28.10;99.90
58517;DHT22;44308;50.810;0.284;2022-07-24T15:18:09;28.10;99.90
58517;DHT22;44308;50.810;0.284;2022-07-24T15:20:35;28.00;99.90
58517;DHT22;44308;50.810;0.284;2022-07-24T15:23:00;28.40;99.90
58517;DHT22;44308;50.810;0.284;2022-07-24T15:25:26;28.40;99.90
58517;DHT22;44308;50.810;0.284;2022-07-24T15:27:52;29.00;99.90
58517;DHT22;44308;50.810;0.284;2022-07-24T15:30:19;29.40;99.90
58517;DHT22;44308;50.810;0.284;2022-07-24T15:32:45;29.40;99.90
58517;DHT22;44308;50.810;0.284;2022-07-24T15:35:10;29.60;99.90
58517;DHT22;44308;50.810;0.284;2022-07-24T15:37:36;29.70;99.90
58517;DHT22;44308;50.810;0.284;2022-07-24T15:40:03;29.40;99.90
58517;DHT22;44308;50.810;0.284;2022-07-24T15:42:29;29.20;99.90
58517;DHT22;44308;50.810;0.284;2022-07-24T15:44:55;28.90;99.90
58517;DHT22;44308;50.810;0.284;2022-07-24T15:47:21;28.60;99.90
58517;DHT22;44308;50.810;0.284;2022-07-24T15:49:46;28.80;99.90
58517;DHT22;44308;50.810;0.284;2022-07-24T15:52:12;28.80;99.90
58517;DHT22;44308;50.810;0.284;2022-07-24T15:54:38;28.60;99.90
58517;DHT22;44308;50.810;0.284;2022-07-24T15:57:03;28.50;99.90
58517;DHT22;44308;50.810;0.284;2022-07-24T15:59:29;28.50;99.90
58517;DHT22;44308;50.810;0.284;2022-07-24T16:01:55;28.00;99.90
58517;DHT22;44308;50.810;0.284;2022-07-24T16:04:22;28.30;99.90
58517;DHT22;44308;50.810;0.284;2022-07-24T16:06:47;28.30;99.90
58517;DHT22;44308;50.810;0.284;2022-07-24T16:09:14;28.30;99.90
58517;DHT22;44308;50.810;0.284;2022-07-24T16:11:40;28.20;99.90
58517;DHT22;44308;50.810;0.284;2022-07-24T16:14:06;28.00;99.90
58517;DHT22;44308;50.810;0.284;2022-07-24T16:16:31;27.80;99.90
58517;DHT22;44308;50.810;0.284;2022-07-24T16:18:57;27.60;99.90